sensor_id;sensor_type;location;lat;lon;timestamp;temperature;humidity
22716;DHT22;11525;51.152;4.456;2023-04-15T00:01:22;10.40;99.90
22716;DHT22;11525;51.152;4.456;2023-04-15T00:03:50;10.40;99.90
22716;DHT22;11525;51.152;4.456;2023-04-15T00:06:17;10.50;99.90
22716;DHT22;11525;51.152;4.456;2023-04-15T00:08:44;10.60;99.90
22716;DHT22;11525;51.152;4.456;2023-04-15T00:11:10;10.60;99.90
22716;DHT22;11525;51.152;4.456;2023-04-15T00:13:36;10.60;99.90
22716;DHT22;11525;51.152;4.456;2023-04-15T00:16:02;10.60;99.90
22716;DHT22;11525;51.152;4.456;2023-04-15T00:18:28;10.60;99.90
22716;DHT22;11525;51.152;4.456;2023-04-15T00:20:54;10.60;99.90
22716;DHT22;11525;51.152;4.456;2023-04-15T00:23:20;10.50;99.90
22716;DHT22;11525;51.152;4.456;2023-04-15T00:25:46;10.50;99.90
22716;DHT22;11525;51.152;4.456;2023-04-15T00:28:11;10.60;99.90
22716;DHT22;11525;51.152;4.456;2023-04-15T00:30:37;10.60;99.90
22716;DHT22;11525;51.152;4.456;2023-04-15T00:33:03;10.60;99.90
22716;DHT22;11525;51.152;4.456;2023-04-15T00:35:29;10.70;99.90
22716;DHT22;11525;51.152;4.456;2023-04-15T00:37:57;10.80;99.90
22716;DHT22;11525;51.152;4.456;2023-04-15T00:40:23;10.90;99.90
22716;DHT22;11525;51.152;4.456;2023-04-15T00:42:50;10.90;99.90
22716;DHT22;11525;51.152;4.456;2023-04-15T00:45:16;10.90;99.90
22716;DHT22;11525;51.152;4.456;2023-04-15T00:47:42;10.80;99.90
22716;DHT22;11525;51.152;4.456;2023-04-15T00:50:09;10.70;99.90
22716;DHT22;11525;51.152;4.456;2023-04-15T00:52:35;10.80;99.90
22716;DHT22;11525;51.152;4.456;2023-04-15T00:55:02;10.80;99.90
22716;DHT22;11525;51.152;4.456;2023-04-15T00:57:29;11.00;99.90
22716;DHT22;11525;51.152;4.456;2023-04-15T00:59:57;10.90;99.90
22716;DHT22;11525;51.152;4.456;2023-04-15T01:02:23;10.90;99.90
22716;DHT22;11525;51.152;4.456;2023-04-15T01:04:49;10.90;99.90
22716;DHT22;11525;51.152;4.456;2023-04-15T01:07:15;10.90;99.90
22716;DHT22;11525;51.152;4.456;2023-04-15T01:09:41;10.80;99.90
22716;DHT22;11525;51.152;4.456;2023-04-15T01:12:11;10.80;99.90
22716;DHT22;11525;51.152;4.456;2023-04-15T01:14:38;10.80;99.90
22716;DHT22;11525;51.152;4.456;2023-04-15T01:17:04;10.70;99.90
22716;DHT22;11525;51.152;4.456;2023-04-15T01:19:30;10.70;99.90
22716;DHT22;11525;51.152;4.456;2023-04-15T01:21:56;10.70;99.90
22716;DHT22;11525;51.152;4.456;2023-04-15T01:24:22;10.80;99.90
22716;DHT22;11525;51.152;4.456;2023-04-15T01:26:48;10.80;99.90
22716;DHT22;11525;51.152;4.456;2023-04-15T01:29:14;10.80;99.90
22716;DHT22;11525;51.152;4.456;2023-04-15T01:31:47;10.80;99.90
22716;DHT22;11525;51.152;4.456;2023-04-15T01:34:14;10.80;99.90
22716;DHT22;11525;51.152;4.456;2023-04-15T01:36:39;10.90;99.90
22716;DHT22;11525;51.152;4.456;2023-04-15T01:39:05;10.90;99.90
22716;DHT22;11525;51.152;4.456;2023-04-15T01:41:31;10.90;99.90
22716;DHT22;11525;51.152;4.456;2023-04-15T01:43:57;10.80;99.90
22716;DHT22;11525;51.152;4.456;2023-04-15T01:46:23;10.80;99.90
22716;DHT22;11525;51.152;4.456;2023-04-15T01:48:48;10.80;99.90
22716;DHT22;11525;51.152;4.456;2023-04-15T01:51:14;10.70;99.90
22716;DHT22;11525;51.152;4.456;2023-04-15T01:53:40;10.60;99.90
22716;DHT22;11525;51.152;4.456;2023-04-15T01:56:06;10.50;99.90
22716;DHT22;11525;51.152;4.456;2023-04-15T01:58:32;10.50;99.90
22716;DHT22;11525;51.152;4.456;2023-04-15T02:00:58;10.60;99.90
22716;DHT22;11525;51.152;4.456;2023-04-15T02:03:24;10.70;99.90
22716;DHT22;11525;51.152;4.456;2023-04-15T02:05:50;10.70;99.90
22716;DHT22;11525;51.152;4.456;2023-04-15T02:08:16;10.70;99.90
22716;DHT22;11525;51.152;4.456;2023-04-15T02:10:42;10.60;99.90
22716;DHT22;11525;51.152;4.456;2023-04-15T02:13:08;10.60;99.90
22716;DHT22;11525;51.152;4.456;2023-04-15T02:15:34;10.60;99.90
22716;DHT22;11525;51.152;4.456;2023-04-15T02:17:59;10.60;99.90
22716;DHT22;11525;51.152;4.456;2023-04-15T02:20:26;10.50;99.90
22716;DHT22;11525;51.152;4.456;2023-04-15T02:22:52;10.60;99.90
22716;DHT22;11525;51.152;4.456;2023-04-15T02:25:18;10.60;99.90
22716;DHT22;11525;51.152;4.456;2023-04-15T02:27:44;10.70;99.90
22716;DHT22;11525;51.152;4.456;2023-04-15T02:30:10;10.70;99.90
22716;DHT22;11525;51.152;4.456;2023-04-15T02:32:36;10.80;99.90
22716;DHT22;11525;51.152;4.456;2023-04-15T02:35:06;10.70;99.90
22716;DHT22;11525;51.152;4.456;2023-04-15T02:37:35;10.60;99.90
22716;DHT22;11525;51.152;4.456;2023-04-15T02:40:07;10.50;99.90
22716;DHT22;11525;51.152;4.456;2023-04-15T02:42:33;10.50;99.90
22716;DHT22;11525;51.152;4.456;2023-04-15T02:44:59;10.40;99.90
22716;DHT22;11525;51.152;4.456;2023-04-15T02:47:25;10.30;99.90
22716;DHT22;11525;51.152;4.456;2023-04-15T02:49:51;10.10;99.90
22716;DHT22;11525;51.152;4.456;2023-04-15T02:52:16;10.00;99.90
22716;DHT22;11525;51.152;4.456;2023-04-15T02:54:42;10.00;99.90
22716;DHT22;11525;51.152;4.456;2023-04-15T02:57:08;10.00;99.90
22716;DHT22;11525;51.152;4.456;2023-04-15T02:59:35;10.00;99.90
22716;DHT22;11525;51.152;4.456;2023-04-15T03:02:00;10.00;99.90
22716;DHT22;11525;51.152;4.456;2023-04-15T03:04:26;10.10;99.90
22716;DHT22;11525;51.152;4.456;2023-04-15T03:06:54;9.90;99.90
22716;DHT22;11525;51.152;4.456;2023-04-15T03:09:21;9.90;99.90
22716;DHT22;11525;51.152;4.456;2023-04-15T03:11:46;9.80;99.90
22716;DHT22;11525;51.152;4.456;2023-04-15T03:14:12;9.80;99.90
22716;DHT22;11525;51.152;4.456;2023-04-15T03:16:37;9.80;99.90
22716;DHT22;11525;51.152;4.456;2023-04-15T03:19:03;9.90;99.90
22716;DHT22;11525;51.152;4.456;2023-04-15T03:21:29;9.90;99.90
22716;DHT22;11525;51.152;4.456;2023-04-15T03:23:55;9.80;99.90
22716;DHT22;11525;51.152;4.456;2023-04-15T03:26:29;9.80;99.90
22716;DHT22;11525;51.152;4.456;2023-04-15T03:28:56;9.80;99.90
22716;DHT22;11525;51.152;4.456;2023-04-15T03:31:21;9.80;99.90
22716;DHT22;11525;51.152;4.456;2023-04-15T03:33:47;9.70;99.90
22716;DHT22;11525;51.152;4.456;2023-04-15T03:36:13;9.50;99.90
22716;DHT22;11525;51.152;4.456;2023-04-15T03:38:39;9.30;99.90
22716;DHT22;11525;51.152;4.456;2023-04-15T03:41:04;9.20;99.90
22716;DHT22;11525;51.152;4.456;2023-04-15T03:43:30;9.10;99.90
22716;DHT22;11525;51.152;4.456;2023-04-15T03:45:56;8.90;99.90
22716;DHT22;11525;51.152;4.456;2023-04-15T03:48:22;9.00;99.90
22716;DHT22;11525;51.152;4.456;2023-04-15T03:50:47;9.10;99.90
22716;DHT22;11525;51.152;4.456;2023-04-15T03:53:14;9.20;99.90
22716;DHT22;11525;51.152;4.456;2023-04-15T03:55:39;9.30;99.90
22716;DHT22;11525;51.152;4.456;2023-04-15T03:58:05;9.30;99.90
22716;DHT22;11525;51.152;4.456;2023-04-15T04:00:31;9.10;99.90
22716;DHT22;11525;51.152;4.456;2023-04-15T04:02:56;9.10;99.90
22716;DHT22;11525;51.152;4.456;2023-04-15T04:05:22;9.10;99.90
22716;DHT22;11525;51.152;4.456;2023-04-15T04:07:48;9.00;99.90
22716;DHT22;11525;51.152;4.456;2023-04-15T04:10:14;9.20;99.90
22716;DHT22;11525;51.152;4.456;2023-04-15T04:12:40;9.30;99.90
22716;DHT22;11525;51.152;4.456;2023-04-15T04:15:06;9.30;99.90
22716;DHT22;11525;51.152;4.456;2023-04-15T04:17:32;9.30;99.90
22716;DHT22;11525;51.152;4.456;2023-04-15T04:19:58;9.40;99.90
22716;DHT22;11525;51.152;4.456;2023-04-15T04:22:24;9.50;99.90
22716;DHT22;11525;51.152;4.456;2023-04-15T04:24:50;9.50;99.90
22716;DHT22;11525;51.152;4.456;2023-04-15T04:27:15;9.50;99.90
22716;DHT22;11525;51.152;4.456;2023-04-15T04:29:41;9.40;99.90
22716;DHT22;11525;51.152;4.456;2023-04-15T04:32:07;9.50;99.90
22716;DHT22;11525;51.152;4.456;2023-04-15T04:34:33;9.40;99.90
22716;DHT22;11525;51.152;4.456;2023-04-15T04:36:58;9.60;99.90
22716;DHT22;11525;51.152;4.456;2023-04-15T04:39:24;9.60;99.90
22716;DHT22;11525;51.152;4.456;2023-04-15T04:41:50;9.40;99.90
22716;DHT22;11525;51.152;4.456;2023-04-15T04:44:16;9.20;99.90
22716;DHT22;11525;51.152;4.456;2023-04-15T04:46:45;9.30;99.90
22716;DHT22;11525;51.152;4.456;2023-04-15T04:49:11;9.30;99.90
22716;DHT22;11525;51.152;4.456;2023-04-15T04:51:36;9.30;99.90
22716;DHT22;11525;51.152;4.456;2023-04-15T04:54:03;9.30;99.90
22716;DHT22;11525;51.152;4.456;2023-04-15T04:56:28;9.40;99.90
22716;DHT22;11525;51.152;4.456;2023-04-15T04:58:54;9.60;99.90
22716;DHT22;11525;51.152;4.456;2023-04-15T05:01:20;9.50;99.90
22716;DHT22;11525;51.152;4.456;2023-04-15T05:03:45;9.20;99.90
22716;DHT22;11525;51.152;4.456;2023-04-15T05:06:11;9.20;99.90
22716;DHT22;11525;51.152;4.456;2023-04-15T05:08:37;9.30;99.90
22716;DHT22;11525;51.152;4.456;2023-04-15T05:11:03;9.50;99.90
22716;DHT22;11525;51.152;4.456;2023-04-15T05:13:29;9.60;99.90
22716;DHT22;11525;51.152;4.456;2023-04-15T05:15:55;9.70;99.90
22716;DHT22;11525;51.152;4.456;2023-04-15T05:18:21;9.60;99.90
22716;DHT22;11525;51.152;4.456;2023-04-15T05:20:46;9.60;99.90
22716;DHT22;11525;51.152;4.456;2023-04-15T05:23:14;9.50;99.90
22716;DHT22;11525;51.152;4.456;2023-04-15T05:25:40;9.60;99.90
22716;DHT22;11525;51.152;4.456;2023-04-15T05:28:05;9.70;99.90
22716;DHT22;11525;51.152;4.456;2023-04-15T05:30:31;9.50;99.90
22716;DHT22;11525;51.152;4.456;2023-04-15T05:32:57;9.30;99.90
22716;DHT22;11525;51.152;4.456;2023-04-15T05:35:22;9.30;99.90
22716;DHT22;11525;51.152;4.456;2023-04-15T05:37:48;9.30;99.90
22716;DHT22;11525;51.152;4.456;2023-04-15T05:40:14;9.50;99.90
22716;DHT22;11525;51.152;4.456;2023-04-15T05:42:39;9.70;99.90
22716;DHT22;11525;51.152;4.456;2023-04-15T05:45:06;9.80;99.90
22716;DHT22;11525;51.152;4.456;2023-04-15T05:47:34;10.00;99.90
22716;DHT22;11525;51.152;4.456;2023-04-15T05:50:00;10.00;99.90
22716;DHT22;11525;51.152;4.456;2023-04-15T05:52:26;10.10;99.90
22716;DHT22;11525;51.152;4.456;2023-04-15T05:54:51;10.10;99.90
22716;DHT22;11525;51.152;4.456;2023-04-15T05:57:17;10.10;99.90
22716;DHT22;11525;51.152;4.456;2023-04-15T05:59:42;10.10;99.90
22716;DHT22;11525;51.152;4.456;2023-04-15T06:02:09;10.10;99.90
22716;DHT22;11525;51.152;4.456;2023-04-15T06:04:35;9.90;99.90
22716;DHT22;11525;51.152;4.456;2023-04-15T06:07:01;9.70;99.90
22716;DHT22;11525;51.152;4.456;2023-04-15T06:09:27;9.60;99.90
22716;DHT22;11525;51.152;4.456;2023-04-15T06:11:53;9.70;99.90
22716;DHT22;11525;51.152;4.456;2023-04-15T06:14:19;9.80;99.90
22716;DHT22;11525;51.152;4.456;2023-04-15T06:16:44;9.80;99.90
22716;DHT22;11525;51.152;4.456;2023-04-15T06:19:10;9.70;99.90
22716;DHT22;11525;51.152;4.456;2023-04-15T06:21:37;9.80;99.90
22716;DHT22;11525;51.152;4.456;2023-04-15T06:24:02;9.80;99.90
22716;DHT22;11525;51.152;4.456;2023-04-15T06:26:28;9.70;99.90
22716;DHT22;11525;51.152;4.456;2023-04-15T06:28:54;9.60;99.90
22716;DHT22;11525;51.152;4.456;2023-04-15T06:31:20;9.70;99.90
22716;DHT22;11525;51.152;4.456;2023-04-15T06:33:45;9.80;99.90
22716;DHT22;11525;51.152;4.456;2023-04-15T06:36:11;10.00;99.90
22716;DHT22;11525;51.152;4.456;2023-04-15T06:38:37;10.10;99.90
22716;DHT22;11525;51.152;4.456;2023-04-15T06:41:03;10.40;99.90
22716;DHT22;11525;51.152;4.456;2023-04-15T06:43:29;10.40;99.90
22716;DHT22;11525;51.152;4.456;2023-04-15T06:45:55;10.30;99.90
22716;DHT22;11525;51.152;4.456;2023-04-15T06:48:21;10.20;99.90
22716;DHT22;11525;51.152;4.456;2023-04-15T06:50:48;10.20;99.90
22716;DHT22;11525;51.152;4.456;2023-04-15T06:53:14;10.30;99.90
22716;DHT22;11525;51.152;4.456;2023-04-15T06:55:40;10.40;99.90
22716;DHT22;11525;51.152;4.456;2023-04-15T06:58:06;10.30;99.90
22716;DHT22;11525;51.152;4.456;2023-04-15T07:00:32;10.60;99.90
22716;DHT22;11525;51.152;4.456;2023-04-15T07:03:03;11.00;99.90
22716;DHT22;11525;51.152;4.456;2023-04-15T07:05:29;11.60;99.90
22716;DHT22;11525;51.152;4.456;2023-04-15T07:07:56;11.70;99.90
22716;DHT22;11525;51.152;4.456;2023-04-15T07:10:22;11.70;99.90
22716;DHT22;11525;51.152;4.456;2023-04-15T07:12:48;11.70;99.90
22716;DHT22;11525;51.152;4.456;2023-04-15T07:15:15;12.30;99.90
22716;DHT22;11525;51.152;4.456;2023-04-15T07:17:41;12.30;99.90
22716;DHT22;11525;51.152;4.456;2023-04-15T07:20:08;12.40;99.90
22716;DHT22;11525;51.152;4.456;2023-04-15T07:22:34;12.00;99.90
22716;DHT22;11525;51.152;4.456;2023-04-15T07:25:00;12.00;99.90
22716;DHT22;11525;51.152;4.456;2023-04-15T07:27:25;11.90;99.90
22716;DHT22;11525;51.152;4.456;2023-04-15T07:29:51;12.30;99.90
22716;DHT22;11525;51.152;4.456;2023-04-15T07:32:18;14.30;99.90
22716;DHT22;11525;51.152;4.456;2023-04-15T07:34:43;14.70;99.90
22716;DHT22;11525;51.152;4.456;2023-04-15T07:37:09;14.70;99.90
22716;DHT22;11525;51.152;4.456;2023-04-15T07:39:35;14.60;99.90
22716;DHT22;11525;51.152;4.456;2023-04-15T07:42:01;15.40;99.90
22716;DHT22;11525;51.152;4.456;2023-04-15T07:44:28;16.20;99.90
22716;DHT22;11525;51.152;4.456;2023-04-15T07:46:54;17.40;99.90
22716;DHT22;11525;51.152;4.456;2023-04-15T07:49:20;18.20;99.90
22716;DHT22;11525;51.152;4.456;2023-04-15T07:51:46;19.00;98.90
22716;DHT22;11525;51.152;4.456;2023-04-15T07:54:13;19.90;95.70
22716;DHT22;11525;51.152;4.456;2023-04-15T07:56:39;19.30;94.40
22716;DHT22;11525;51.152;4.456;2023-04-15T07:59:05;21.30;93.90
22716;DHT22;11525;51.152;4.456;2023-04-15T08:01:31;23.60;86.30
22716;DHT22;11525;51.152;4.456;2023-04-15T08:03:58;23.20;80.20
22716;DHT22;11525;51.152;4.456;2023-04-15T08:06:23;23.00;74.90
22716;DHT22;11525;51.152;4.456;2023-04-15T08:08:49;22.20;75.70
22716;DHT22;11525;51.152;4.456;2023-04-15T08:11:15;22.40;73.80
22716;DHT22;11525;51.152;4.456;2023-04-15T08:13:41;21.40;77.10
22716;DHT22;11525;51.152;4.456;2023-04-15T08:16:20;22.10;74.60
22716;DHT22;11525;51.152;4.456;2023-04-15T08:18:47;24.20;72.60
22716;DHT22;11525;51.152;4.456;2023-04-15T08:21:13;24.70;63.40
22716;DHT22;11525;51.152;4.456;2023-04-15T08:23:39;24.60;61.60
22716;DHT22;11525;51.152;4.456;2023-04-15T08:26:05;23.90;63.20
22716;DHT22;11525;51.152;4.456;2023-04-15T08:28:32;23.60;63.80
22716;DHT22;11525;51.152;4.456;2023-04-15T08:30:57;23.20;63.70
22716;DHT22;11525;51.152;4.456;2023-04-15T08:33:23;23.10;63.70
22716;DHT22;11525;51.152;4.456;2023-04-15T08:35:49;22.80;66.70
22716;DHT22;11525;51.152;4.456;2023-04-15T08:38:14;23.80;65.00
22716;DHT22;11525;51.152;4.456;2023-04-15T08:40:42;24.10;61.20
22716;DHT22;11525;51.152;4.456;2023-04-15T08:43:11;23.10;63.30
22716;DHT22;11525;51.152;4.456;2023-04-15T08:45:38;22.80;64.10
22716;DHT22;11525;51.152;4.456;2023-04-15T08:48:04;23.50;63.40
22716;DHT22;11525;51.152;4.456;2023-04-15T08:50:31;23.60;62.40
22716;DHT22;11525;51.152;4.456;2023-04-15T08:53:00;22.40;63.40
22716;DHT22;11525;51.152;4.456;2023-04-15T08:55:32;22.20;64.10
22716;DHT22;11525;51.152;4.456;2023-04-15T08:58:01;22.40;62.90
22716;DHT22;11525;51.152;4.456;2023-04-15T09:00:27;23.20;62.40
22716;DHT22;11525;51.152;4.456;2023-04-15T09:02:55;22.50;63.90
22716;DHT22;11525;51.152;4.456;2023-04-15T09:05:21;22.20;64.60
22716;DHT22;11525;51.152;4.456;2023-04-15T09:07:49;21.90;65.50
22716;DHT22;11525;51.152;4.456;2023-04-15T09:10:14;22.70;65.90
22716;DHT22;11525;51.152;4.456;2023-04-15T09:12:40;23.70;63.20
22716;DHT22;11525;51.152;4.456;2023-04-15T09:15:07;24.00;61.10
22716;DHT22;11525;51.152;4.456;2023-04-15T09:17:42;22.80;63.60
22716;DHT22;11525;51.152;4.456;2023-04-15T09:20:15;23.10;63.80
22716;DHT22;11525;51.152;4.456;2023-04-15T09:22:45;22.70;63.80
22716;DHT22;11525;51.152;4.456;2023-04-15T09:27:49;21.70;63.80
22716;DHT22;11525;51.152;4.456;2023-04-15T09:30:15;21.50;64.20
22716;DHT22;11525;51.152;4.456;2023-04-15T09:32:51;21.50;64.30
22716;DHT22;11525;51.152;4.456;2023-04-15T09:35:18;20.50;65.50
22716;DHT22;11525;51.152;4.456;2023-04-15T09:37:44;21.00;66.90
22716;DHT22;11525;51.152;4.456;2023-04-15T09:40:11;21.10;66.60
22716;DHT22;11525;51.152;4.456;2023-04-15T09:42:53;21.20;66.80
22716;DHT22;11525;51.152;4.456;2023-04-15T09:45:19;20.80;68.70
22716;DHT22;11525;51.152;4.456;2023-04-15T09:47:45;21.10;67.10
22716;DHT22;11525;51.152;4.456;2023-04-15T09:50:11;20.70;64.50
22716;DHT22;11525;51.152;4.456;2023-04-15T09:52:41;20.40;64.30
22716;DHT22;11525;51.152;4.456;2023-04-15T09:55:08;19.90;66.00
22716;DHT22;11525;51.152;4.456;2023-04-15T09:57:35;20.00;63.30
22716;DHT22;11525;51.152;4.456;2023-04-15T10:00:04;19.90;62.50
22716;DHT22;11525;51.152;4.456;2023-04-15T10:02:32;20.30;64.80
22716;DHT22;11525;51.152;4.456;2023-04-15T10:04:59;21.30;63.30
22716;DHT22;11525;51.152;4.456;2023-04-15T10:07:26;21.70;60.70
22716;DHT22;11525;51.152;4.456;2023-04-15T10:09:53;21.80;61.40
22716;DHT22;11525;51.152;4.456;2023-04-15T10:12:19;20.50;60.70
22716;DHT22;11525;51.152;4.456;2023-04-15T10:14:57;19.90;62.00
22716;DHT22;11525;51.152;4.456;2023-04-15T10:17:26;19.90;61.80
22716;DHT22;11525;51.152;4.456;2023-04-15T10:19:53;20.80;60.60
22716;DHT22;11525;51.152;4.456;2023-04-15T10:22:23;22.00;56.10
22716;DHT22;11525;51.152;4.456;2023-04-15T10:24:51;23.30;53.70
22716;DHT22;11525;51.152;4.456;2023-04-15T10:27:18;23.20;51.30
22716;DHT22;11525;51.152;4.456;2023-04-15T10:29:45;23.80;51.90
22716;DHT22;11525;51.152;4.456;2023-04-15T10:32:11;23.10;54.60
22716;DHT22;11525;51.152;4.456;2023-04-15T10:34:38;22.30;57.10
22716;DHT22;11525;51.152;4.456;2023-04-15T10:37:04;21.50;58.20
22716;DHT22;11525;51.152;4.456;2023-04-15T10:42:18;21.40;54.20
22716;DHT22;11525;51.152;4.456;2023-04-15T10:44:48;21.40;54.40
22716;DHT22;11525;51.152;4.456;2023-04-15T10:47:16;20.40;56.50
22716;DHT22;11525;51.152;4.456;2023-04-15T10:49:58;21.80;57.70
22716;DHT22;11525;51.152;4.456;2023-04-15T10:52:26;23.40;53.00
22716;DHT22;11525;51.152;4.456;2023-04-15T10:55:18;22.70;51.40
22716;DHT22;11525;51.152;4.456;2023-04-15T10:57:45;19.60;57.50
22716;DHT22;11525;51.152;4.456;2023-04-15T11:02:54;17.70;64.80
22716;DHT22;11525;51.152;4.456;2023-04-15T11:08:10;17.30;60.70
22716;DHT22;11525;51.152;4.456;2023-04-15T11:13:14;17.10;60.40
22716;DHT22;11525;51.152;4.456;2023-04-15T11:15:45;17.00;60.50
22716;DHT22;11525;51.152;4.456;2023-04-15T11:20:52;16.50;63.80
22716;DHT22;11525;51.152;4.456;2023-04-15T11:23:30;16.20;65.40
22716;DHT22;11525;51.152;4.456;2023-04-15T11:25:57;16.10;65.90
22716;DHT22;11525;51.152;4.456;2023-04-15T11:28:28;16.20;65.40
22716;DHT22;11525;51.152;4.456;2023-04-15T11:30:54;16.30;66.40
22716;DHT22;11525;51.152;4.456;2023-04-15T11:33:20;16.50;65.30
22716;DHT22;11525;51.152;4.456;2023-04-15T11:35:47;16.40;64.90
22716;DHT22;11525;51.152;4.456;2023-04-15T11:38:13;16.40;62.80
22716;DHT22;11525;51.152;4.456;2023-04-15T11:40:40;16.50;63.20
22716;DHT22;11525;51.152;4.456;2023-04-15T11:43:14;16.40;62.90
22716;DHT22;11525;51.152;4.456;2023-04-15T11:45:51;16.30;62.50
22716;DHT22;11525;51.152;4.456;2023-04-15T11:48:18;16.30;62.50
22716;DHT22;11525;51.152;4.456;2023-04-15T11:50:43;16.50;60.00
22716;DHT22;11525;51.152;4.456;2023-04-15T11:53:11;16.40;60.00
22716;DHT22;11525;51.152;4.456;2023-04-15T11:55:45;16.30;61.30
22716;DHT22;11525;51.152;4.456;2023-04-15T11:58:18;16.00;63.10
22716;DHT22;11525;51.152;4.456;2023-04-15T12:00:56;16.10;66.20
22716;DHT22;11525;51.152;4.456;2023-04-15T12:03:27;16.20;66.20
22716;DHT22;11525;51.152;4.456;2023-04-15T12:16:45;16.20;67.10
22716;DHT22;11525;51.152;4.456;2023-04-15T12:19:13;16.20;67.80
22716;DHT22;11525;51.152;4.456;2023-04-15T12:21:41;16.10;68.80
22716;DHT22;11525;51.152;4.456;2023-04-15T12:24:10;16.00;66.20
22716;DHT22;11525;51.152;4.456;2023-04-15T12:26:37;15.90;66.80
22716;DHT22;11525;51.152;4.456;2023-04-15T12:29:07;15.90;69.20
22716;DHT22;11525;51.152;4.456;2023-04-15T12:31:34;15.90;70.50
22716;DHT22;11525;51.152;4.456;2023-04-15T12:34:01;16.00;70.90
22716;DHT22;11525;51.152;4.456;2023-04-15T12:36:29;16.10;66.70
22716;DHT22;11525;51.152;4.456;2023-04-15T12:39:01;16.00;69.80
22716;DHT22;11525;51.152;4.456;2023-04-15T12:41:27;15.90;70.60
22716;DHT22;11525;51.152;4.456;2023-04-15T12:43:53;16.00;70.60
22716;DHT22;11525;51.152;4.456;2023-04-15T12:46:18;15.90;69.10
22716;DHT22;11525;51.152;4.456;2023-04-15T12:48:44;16.00;69.00
22716;DHT22;11525;51.152;4.456;2023-04-15T12:51:10;16.00;68.70
22716;DHT22;11525;51.152;4.456;2023-04-15T12:53:36;16.00;69.70
22716;DHT22;11525;51.152;4.456;2023-04-15T12:56:02;16.00;68.20
22716;DHT22;11525;51.152;4.456;2023-04-15T12:58:27;16.00;67.70
22716;DHT22;11525;51.152;4.456;2023-04-15T13:00:53;15.90;66.20
22716;DHT22;11525;51.152;4.456;2023-04-15T13:03:19;15.80;64.00
22716;DHT22;11525;51.152;4.456;2023-04-15T13:05:45;15.80;64.90
22716;DHT22;11525;51.152;4.456;2023-04-15T13:08:10;15.90;67.50
22716;DHT22;11525;51.152;4.456;2023-04-15T13:10:36;15.90;68.90
22716;DHT22;11525;51.152;4.456;2023-04-15T13:13:03;16.10;67.50
22716;DHT22;11525;51.152;4.456;2023-04-15T13:15:28;15.90;66.50
22716;DHT22;11525;51.152;4.456;2023-04-15T13:17:54;15.80;70.10
22716;DHT22;11525;51.152;4.456;2023-04-15T13:20:20;15.90;72.00
22716;DHT22;11525;51.152;4.456;2023-04-15T13:22:46;16.00;71.20
22716;DHT22;11525;51.152;4.456;2023-04-15T13:25:12;15.90;69.30
22716;DHT22;11525;51.152;4.456;2023-04-15T13:27:37;15.70;69.10
22716;DHT22;11525;51.152;4.456;2023-04-15T13:30:04;15.40;69.20
22716;DHT22;11525;51.152;4.456;2023-04-15T13:32:30;15.40;70.40
22716;DHT22;11525;51.152;4.456;2023-04-15T13:34:56;15.50;69.80
22716;DHT22;11525;51.152;4.456;2023-04-15T13:37:30;15.40;69.40
22716;DHT22;11525;51.152;4.456;2023-04-15T13:39:56;15.40;67.00
22716;DHT22;11525;51.152;4.456;2023-04-15T13:42:22;15.40;69.40
22716;DHT22;11525;51.152;4.456;2023-04-15T13:44:51;15.40;72.10
22716;DHT22;11525;51.152;4.456;2023-04-15T13:47:18;15.40;73.60
22716;DHT22;11525;51.152;4.456;2023-04-15T13:49:44;15.40;71.00
22716;DHT22;11525;51.152;4.456;2023-04-15T13:52:10;15.50;70.50
22716;DHT22;11525;51.152;4.456;2023-04-15T13:54:36;15.50;70.70
22716;DHT22;11525;51.152;4.456;2023-04-15T13:57:02;15.70;73.40
22716;DHT22;11525;51.152;4.456;2023-04-15T13:59:28;15.90;72.10
22716;DHT22;11525;51.152;4.456;2023-04-15T14:01:54;15.70;72.80
22716;DHT22;11525;51.152;4.456;2023-04-15T14:04:19;15.70;74.10
22716;DHT22;11525;51.152;4.456;2023-04-15T14:06:45;15.80;73.60
22716;DHT22;11525;51.152;4.456;2023-04-15T14:09:11;15.90;74.30
22716;DHT22;11525;51.152;4.456;2023-04-15T14:11:37;16.00;75.70
22716;DHT22;11525;51.152;4.456;2023-04-15T14:14:03;15.90;77.20
22716;DHT22;11525;51.152;4.456;2023-04-15T14:16:31;15.70;77.20
22716;DHT22;11525;51.152;4.456;2023-04-15T14:18:57;15.80;79.00
22716;DHT22;11525;51.152;4.456;2023-04-15T14:21:24;16.00;77.70
22716;DHT22;11525;51.152;4.456;2023-04-15T14:23:50;16.10;78.60
22716;DHT22;11525;51.152;4.456;2023-04-15T14:26:16;16.00;76.50
22716;DHT22;11525;51.152;4.456;2023-04-15T14:28:41;15.80;75.40
22716;DHT22;11525;51.152;4.456;2023-04-15T14:31:09;15.50;74.80
22716;DHT22;11525;51.152;4.456;2023-04-15T14:33:35;15.40;77.40
22716;DHT22;11525;51.152;4.456;2023-04-15T14:36:01;15.50;78.60
22716;DHT22;11525;51.152;4.456;2023-04-15T14:38:26;15.80;78.10
22716;DHT22;11525;51.152;4.456;2023-04-15T14:40:52;16.10;78.50
22716;DHT22;11525;51.152;4.456;2023-04-15T14:43:18;16.30;80.30
22716;DHT22;11525;51.152;4.456;2023-04-15T14:45:44;16.30;80.90
22716;DHT22;11525;51.152;4.456;2023-04-15T14:48:09;16.30;79.60
22716;DHT22;11525;51.152;4.456;2023-04-15T14:50:37;16.60;78.80
22716;DHT22;11525;51.152;4.456;2023-04-15T14:53:02;16.50;81.20
22716;DHT22;11525;51.152;4.456;2023-04-15T14:55:29;16.30;81.60
22716;DHT22;11525;51.152;4.456;2023-04-15T14:57:54;16.10;71.60
22716;DHT22;11525;51.152;4.456;2023-04-15T15:00:20;16.10;70.20
22716;DHT22;11525;51.152;4.456;2023-04-15T15:02:46;16.00;71.50
22716;DHT22;11525;51.152;4.456;2023-04-15T15:05:12;15.70;72.70
22716;DHT22;11525;51.152;4.456;2023-04-15T15:07:38;15.70;74.70
22716;DHT22;11525;51.152;4.456;2023-04-15T15:10:05;15.60;72.50
22716;DHT22;11525;51.152;4.456;2023-04-15T15:12:32;15.90;73.40
22716;DHT22;11525;51.152;4.456;2023-04-15T15:14:58;16.00;75.00
22716;DHT22;11525;51.152;4.456;2023-04-15T15:17:23;16.00;73.80
22716;DHT22;11525;51.152;4.456;2023-04-15T15:19:49;15.80;74.60
22716;DHT22;11525;51.152;4.456;2023-04-15T15:22:15;15.60;76.10
22716;DHT22;11525;51.152;4.456;2023-04-15T15:24:41;15.40;77.90
22716;DHT22;11525;51.152;4.456;2023-04-15T15:27:07;15.50;78.00
22716;DHT22;11525;51.152;4.456;2023-04-15T15:29:33;15.50;78.50
22716;DHT22;11525;51.152;4.456;2023-04-15T15:31:58;15.20;77.80
22716;DHT22;11525;51.152;4.456;2023-04-15T15:34:25;14.70;78.50
22716;DHT22;11525;51.152;4.456;2023-04-15T15:36:51;14.80;79.20
22716;DHT22;11525;51.152;4.456;2023-04-15T15:39:17;15.00;77.20
22716;DHT22;11525;51.152;4.456;2023-04-15T15:41:42;15.00;77.10
22716;DHT22;11525;51.152;4.456;2023-04-15T15:44:08;14.90;78.60
22716;DHT22;11525;51.152;4.456;2023-04-15T15:46:34;14.90;78.30
22716;DHT22;11525;51.152;4.456;2023-04-15T15:49:02;15.10;78.50
22716;DHT22;11525;51.152;4.456;2023-04-15T15:51:28;15.00;79.30
22716;DHT22;11525;51.152;4.456;2023-04-15T15:53:53;15.00;81.00
22716;DHT22;11525;51.152;4.456;2023-04-15T15:56:20;15.10;81.90
22716;DHT22;11525;51.152;4.456;2023-04-15T15:58:45;15.50;82.80